Time;durP1;ratioP1;P1;durP2;ratioP2;P2;SDS_P1;SDS_P2;PMS_P1;PMS_P2;Temp;Humidity;BMP_temperature;BMP_pressure;BME280_temperature;BME280_humidity;BME280_pressure;Samples;Min_cycle;Max_cycle;Signal;HPM_P1;HPM_P2
2022/09/04 00:00:28;;;;;;;15.75;3.05;;;;;;;;;;5011866;28;20038;-67
2022/09/04 00:03:14;;;;;;;10.20;2.60;;;;;;;;;;4999403;28;20030;-67
2022/09/04 00:05:44;;;;;;;14.60;2.78;;;;;;;;;;5011032;28;20037;-67
2022/09/04 00:08:13;;;;;;;13.18;3.20;;;;;;;;;;5009051;28;20104;-67
2022/09/04 00:10:49;;;;;;;15.40;3.33;;;;;;;;;;5014535;28;20482;-67
2022/09/04 00:13:21;;;;;;;11.88;3.40;;;;;;;;;;5015343;28;20029;-67
2022/09/04 00:15:56;;;;;;;10.97;3.10;;;;;;;;;;5014938;28;20033;-67
2022/09/04 00:18:22;;;;;;;18.50;3.53;;;;;;;;;;5015178;28;20449;-67
2022/09/04 00:20:57;;;;;;;11.52;3.08;;;;;;;;;;5014253;28;20037;-67
2022/09/04 00:23:29;;;;;;;10.98;2.83;;;;;;;;;;5015132;28;20124;-67
2022/09/04 00:26:02;;;;;;;15.15;3.08;;;;;;;;;;5015046;28;20113;-67
2022/09/04 00:28:34;;;;;;;16.80;3.10;;;;;;;;;;5021770;28;20057;-67
2022/09/04 00:31:20;;;;;;;20.38;3.45;;;;;;;;;;5014246;28;20194;-67
2022/09/04 00:33:52;;;;;;;12.57;3.47;;;;;;;;;;5014388;28;20032;-67
2022/09/04 00:36:22;;;;;;;16.92;3.15;;;;;;;;;;5014593;28;20033;-67
2022/09/04 00:38:52;;;;;;;18.38;3.58;;;;;;;;;;5014224;28;20494;-67
2022/09/04 00:41:29;;;;;;;18.80;3.22;;;;;;;;;;5009672;28;20100;-67
2022/09/04 00:44:34;;;;;;;12.13;3.22;;;;;;;;;;5005063;28;20036;-67
2022/09/04 00:47:13;;;;;;;10.73;3.00;;;;;;;;;;4995847;28;20073;-67
2022/09/04 00:49:43;;;;;;;11.25;2.80;;;;;;;;;;5004463;28;20396;-67
2022/09/04 00:52:09;;;;;;;13.27;3.13;;;;;;;;;;5004373;28;20050;-67
2022/09/04 00:54:53;;;;;;;12.57;3.10;;;;;;;;;;4997702;28;20041;-67
2022/09/04 00:57:25;;;;;;;12.15;3.33;;;;;;;;;;5012148;28;20058;-67
2022/09/04 01:00:01;;;;;;;10.90;3.40;;;;;;;;;;5003309;28;20494;-67
2022/09/04 01:02:30;;;;;;;13.27;3.28;;;;;;;;;;5006365;28;20518;-67
2022/09/04 01:05:01;;;;;;;12.23;3.28;;;;;;;;;;4994485;28;20030;-67
2022/09/04 01:07:30;;;;;;;16.08;3.30;;;;;;;;;;5006656;28;20034;-67
2022/09/04 01:09:58;;;;;;;15.02;2.78;;;;;;;;;;4996814;28;20023;-67
2022/09/04 01:12:39;;;;;;;11.85;3.28;;;;;;;;;;4998997;28;20081;-67
2022/09/04 01:15:14;;;;;;;9.77;3.20;;;;;;;;;;5002486;28;20109;-67
2022/09/04 01:18:00;;;;;;;18.85;3.90;;;;;;;;;;5004508;28;20046;-67
2022/09/04 01:20:27;;;;;;;11.40;2.85;;;;;;;;;;5001040;28;20053;-67
2022/09/04 01:22:59;;;;;;;14.98;3.33;;;;;;;;;;5010767;28;20030;-67
2022/09/04 01:25:28;;;;;;;11.55;3.30;;;;;;;;;;4999084;28;20034;-67
2022/09/04 01:28:00;;;;;;;21.73;3.40;;;;;;;;;;5005682;28;20342;-67
2022/09/04 01:30:29;;;;;;;18.33;3.35;;;;;;;;;;5007227;28;20470;-67
2022/09/04 01:33:05;;;;;;;13.60;3.28;;;;;;;;;;4997071;28;20121;-67
2022/09/04 01:35:31;;;;;;;16.30;3.30;;;;;;;;;;5008866;28;20030;-67
2022/09/04 01:38:12;;;;;;;18.67;4.32;;;;;;;;;;5009424;28;20056;-67
2022/09/04 01:40:46;;;;;;;22.73;4.30;;;;;;;;;;5018798;28;20033;-67
2022/09/04 01:43:17;;;;;;;15.05;3.08;;;;;;;;;;4997281;28;20042;-67
2022/09/04 01:46:03;;;;;;;13.75;4.07;;;;;;;;;;5006745;28;20112;-67
2022/09/04 01:48:35;;;;;;;8.65;2.92;;;;;;;;;;4998292;28;20076;-67
2022/09/04 01:51:11;;;;;;;21.08;3.40;;;;;;;;;;5006959;28;20049;-67
2022/09/04 01:53:41;;;;;;;16.88;3.47;;;;;;;;;;5005284;28;20026;-67
2022/09/04 01:56:23;;;;;;;11.20;3.10;;;;;;;;;;5003898;28;20022;-67
2022/09/04 01:58:52;;;;;;;20.27;3.60;;;;;;;;;;5009212;28;20129;-67
2022/09/04 02:01:23;;;;;;;17.30;3.22;;;;;;;;;;5016618;28;20450;-67
2022/09/04 02:04:10;;;;;;;15.43;4.22;;;;;;;;;;5006319;28;20089;-67
2022/09/04 02:06:46;;;;;;;14.48;3.13;;;;;;;;;;4994305;28;20038;-67
2022/09/04 02:09:30;;;;;;;13.10;3.00;;;;;;;;;;5009523;28;20049;-67
2022/09/04 02:12:08;;;;;;;19.52;3.10;;;;;;;;;;5005677;28;20030;-67
2022/09/04 02:14:40;;;;;;;14.93;4.20;;;;;;;;;;5006522;28;20022;-67
2022/09/04 02:17:17;;;;;;;10.77;3.83;;;;;;;;;;4996224;28;20027;-67
2022/09/04 02:19:54;;;;;;;10.05;2.72;;;;;;;;;;5007448;28;20120;-67
2022/09/04 02:22:31;;;;;;;18.55;4.15;;;;;;;;;;5009207;28;20025;-67
2022/09/04 02:25:02;;;;;;;13.00;3.15;;;;;;;;;;5016534;28;20393;-67
2022/09/04 02:27:39;;;;;;;10.45;3.38;;;;;;;;;;4997124;28;20022;-67
2022/09/04 02:30:07;;;;;;;21.52;4.13;;;;;;;;;;5004324;28;20026;-67
2022/09/04 02:32:51;;;;;;;14.40;3.00;;;;;;;;;;5005384;28;20026;-67
2022/09/04 02:35:23;;;;;;;19.48;3.38;;;;;;;;;;4996159;28;20058;-67
2022/09/04 02:38:07;;;;;;;14.07;4.47;;;;;;;;;;5007017;28;20794;-67
2022/09/04 02:40:50;;;;;;;16.50;3.22;;;;;;;;;;5005268;28;20520;-67
2022/09/04 02:43:34;;;;;;;21.63;3.10;;;;;;;;;;4996399;28;20117;-67
2022/09/04 02:46:21;;;;;;;16.60;2.95;;;;;;;;;;5023430;28;20668;-67
2022/09/04 02:48:58;;;;;;;14.43;3.03;;;;;;;;;;5012593;28;20383;-67
2022/09/04 02:51:32;;;;;;;16.10;2.90;;;;;;;;;;4996285;28;20375;-67
2022/09/04 02:54:06;;;;;;;18.45;3.10;;;;;;;;;;5006100;28;20042;-67
2022/09/04 02:56:35;;;;;;;15.23;3.05;;;;;;;;;;5004644;28;20030;-67
2022/09/04 02:59:14;;;;;;;18.02;3.65;;;;;;;;;;4997380;28;20533;-67
2022/09/04 03:01:46;;;;;;;11.38;3.30;;;;;;;;;;4993474;28;20116;-67
2022/09/04 03:04:27;;;;;;;14.57;3.13;;;;;;;;;;5008471;28;20033;-67
2022/09/04 03:07:14;;;;;;;17.65;3.40;;;;;;;;;;5017489;28;20367;-67
2022/09/04 03:09:40;;;;;;;22.13;3.47;;;;;;;;;;4997113;28;20457;-67
2022/09/04 03:12:25;;;;;;;17.95;3.65;;;;;;;;;;5005033;28;20129;-67
2022/09/04 03:14:54;;;;;;;21.55;3.53;;;;;;;;;;5006191;28;20116;-67
2022/09/04 03:17:40;;;;;;;18.60;3.70;;;;;;;;;;4996008;28;20060;-67
2022/09/04 03:20:17;;;;;;;19.80;3.80;;;;;;;;;;5005472;28;20077;-67
2022/09/04 03:22:52;;;;;;;14.60;3.72;;;;;;;;;;5005070;28;20034;-67
2022/09/04 03:25:27;;;;;;;14.25;3.33;;;;;;;;;;4995961;28;20042;-67
2022/09/04 03:27:53;;;;;;;23.48;4.00;;;;;;;;;;5009226;28;20027;-67
2022/09/04 03:30:19;;;;;;;14.02;3.72;;;;;;;;;;5005026;28;20034;-67
2022/09/04 03:32:50;;;;;;;15.65;3.60;;;;;;;;;;5018932;28;20042;-67
2022/09/04 03:35:40;;;;;;;17.38;3.45;;;;;;;;;;5016800;28;20034;-67
2022/09/04 03:38:06;;;;;;;20.13;3.55;;;;;;;;;;4996782;28;20026;-67
2022/09/04 03:40:37;;;;;;;11.52;3.67;;;;;;;;;;5006633;28;20058;-67
2022/09/04 03:43:10;;;;;;;17.77;3.85;;;;;;;;;;5001410;28;20481;-67
2022/09/04 03:45:55;;;;;;;16.45;3.55;;;;;;;;;;5012345;28;20168;-67
2022/09/04 03:48:24;;;;;;;10.13;3.00;;;;;;;;;;4996711;28;20081;-67
2022/09/04 03:50:58;;;;;;;17.60;3.50;;;;;;;;;;5008308;28;20504;-67
2022/09/04 03:53:27;;;;;;;15.05;3.17;;;;;;;;;;4999263;28;20038;-67
2022/09/04 03:56:12;;;;;;;20.88;3.50;;;;;;;;;;5011455;28;20015;-67
2022/09/04 03:58:53;;;;;;;22.10;3.92;;;;;;;;;;5006437;28;20037;-67
2022/09/04 04:01:19;;;;;;;14.68;3.35;;;;;;;;;;5011830;28;20042;-67
2022/09/04 04:04:05;;;;;;;13.70;3.85;;;;;;;;;;5010012;28;20042;-67
2022/09/04 04:06:34;;;;;;;24.05;4.18;;;;;;;;;;5009146;28;20040;-67
2022/09/04 04:09:23;;;;;;;13.10;2.97;;;;;;;;;;5016480;28;20453;-67
2022/09/04 04:12:09;;;;;;;21.58;3.70;;;;;;;;;;5011056;28;20084;-67
2022/09/04 04:14:46;;;;;;;14.50;3.92;;;;;;;;;;4996335;28;20031;-67
2022/09/04 04:17:25;;;;;;;13.52;4.03;;;;;;;;;;5001722;28;20424;-67
2022/09/04 04:20:01;;;;;;;18.27;3.60;;;;;;;;;;5014913;28;20058;-67
2022/09/04 04:22:43;;;;;;;17.05;3.15;;;;;;;;;;5014589;28;20107;-67
2022/09/04 04:25:10;;;;;;;22.73;3.92;;;;;;;;;;5014947;28;20030;-67
2022/09/04 04:27:39;;;;;;;13.93;3.10;;;;;;;;;;5014476;28;20038;-67
2022/09/04 04:30:14;;;;;;;16.40;3.60;;;;;;;;;;5013739;28;20053;-67
2022/09/04 04:32:46;;;;;;;12.77;3.15;;;;;;;;;;5014215;28;20041;-67
2022/09/04 04:35:12;;;;;;;13.37;3.13;;;;;;;;;;5014745;28;20032;-67
2022/09/04 04:37:42;;;;;;;17.65;4.15;;;;;;;;;;5014174;28;20473;-67
2022/09/04 04:40:20;;;;;;;16.27;3.60;;;;;;;;;;5014374;28;20033;-67
2022/09/04 04:42:46;;;;;;;18.60;3.53;;;;;;;;;;5012893;28;20374;-67
2022/09/04 04:48:18;;;;;;;20.80;3.75;;;;;;;;;;5013517;28;20487;-67
2022/09/04 04:51:04;;;;;;;18.17;4.25;;;;;;;;;;5012587;28;20029;-67
2022/09/04 04:53:31;;;;;;;17.40;3.90;;;;;;;;;;5014603;28;20030;-67
2022/09/04 04:56:00;;;;;;;24.10;4.25;;;;;;;;;;5013843;28;20021;-67
2022/09/04 04:58:42;;;;;;;22.25;4.18;;;;;;;;;;5014250;28;20074;-67
2022/09/04 05:01:23;;;;;;;17.98;3.78;;;;;;;;;;5013434;28;20034;-67
2022/09/04 05:03:54;;;;;;;14.68;3.67;;;;;;;;;;5012784;28;20044;-67
2022/09/04 05:06:41;;;;;;;17.63;3.73;;;;;;;;;;5000873;28;20041;-67
2022/09/04 05:09:13;;;;;;;18.35;3.47;;;;;;;;;;4994834;28;20281;-67
2022/09/04 05:11:46;;;;;;;19.83;4.72;;;;;;;;;;5011193;28;20433;-67
2022/09/04 05:14:28;;;;;;;13.32;3.72;;;;;;;;;;5002168;28;20027;-67
2022/09/04 05:17:00;;;;;;;15.18;3.58;;;;;;;;;;5010834;28;20026;-67
2022/09/04 05:19:26;;;;;;;16.07;3.43;;;;;;;;;;5000800;28;20022;-67
2022/09/04 05:22:11;;;;;;;16.40;3.53;;;;;;;;;;5004787;28;20265;-67
2022/09/04 05:24:47;;;;;;;22.60;4.72;;;;;;;;;;5007930;28;20038;-67
2022/09/04 05:27:22;;;;;;;28.35;5.13;;;;;;;;;;5013469;28;20033;-67
2022/09/04 05:30:11;;;;;;;19.23;3.88;;;;;;;;;;5005758;28;20037;-67
2022/09/04 05:32:47;;;;;;;16.73;3.78;;;;;;;;;;5009420;28;20044;-67
2022/09/04 05:35:18;;;;;;;18.63;3.75;;;;;;;;;;4998165;28;20028;-67
2022/09/04 05:37:50;;;;;;;23.58;4.20;;;;;;;;;;5007380;28;20490;-67
2022/09/04 05:40:28;;;;;;;20.70;4.20;;;;;;;;;;5024889;28;20084;-67
2022/09/04 05:43:09;;;;;;;26.70;4.50;;;;;;;;;;4996650;28;20057;-67
2022/09/04 05:45:54;;;;;;;25.83;4.88;;;;;;;;;;5013814;28;20021;-67
2022/09/04 05:48:20;;;;;;;23.73;4.28;;;;;;;;;;5014082;28;20049;-67
2022/09/04 05:50:46;;;;;;;12.13;3.25;;;;;;;;;;5022879;28;20022;-67
2022/09/04 05:53:30;;;;;;;16.95;3.53;;;;;;;;;;5001345;28;20026;-67
2022/09/04 05:56:05;;;;;;;13.63;3.35;;;;;;;;;;5006387;28;20482;-67
2022/09/04 05:58:50;;;;;;;22.77;3.80;;;;;;;;;;5007389;28;20030;-67
2022/09/04 06:01:34;;;;;;;26.20;5.35;;;;;;;;;;5020239;28;20046;-67
2022/09/04 06:04:13;;;;;;;17.13;4.53;;;;;;;;;;5005187;28;20117;-67
2022/09/04 06:06:42;;;;;;;21.33;3.85;;;;;;;;;;5013065;28;20111;-67
2022/09/04 06:09:20;;;;;;;19.23;3.85;;;;;;;;;;5010339;28;20054;-67
2022/09/04 06:12:04;;;;;;;19.95;4.07;;;;;;;;;;5011516;28;20033;-67
2022/09/04 06:14:53;;;;;;;17.08;4.13;;;;;;;;;;5002488;28;20018;-67
2022/09/04 06:17:28;;;;;;;18.17;4.05;;;;;;;;;;4995873;28;20076;-67
2022/09/04 06:20:13;;;;;;;22.77;4.88;;;;;;;;;;5005799;28;20053;-67
2022/09/04 06:22:47;;;;;;;12.93;3.35;;;;;;;;;;5017990;28;20030;-67
2022/09/04 06:25:34;;;;;;;19.17;3.38;;;;;;;;;;5011167;28;20038;-67
2022/09/04 06:28:03;;;;;;;18.17;3.97;;;;;;;;;;5021370;28;20461;-67
2022/09/04 06:30:33;;;;;;;17.25;3.95;;;;;;;;;;5014670;28;20030;-67
2022/09/04 06:32:59;;;;;;;19.88;4.03;;;;;;;;;;5015676;28;20079;-67
2022/09/04 06:35:31;;;;;;;16.90;3.90;;;;;;;;;;5013163;28;20062;-67
2022/09/04 06:37:57;;;;;;;21.92;4.40;;;;;;;;;;5019462;28;20029;-67
2022/09/04 06:40:24;;;;;;;19.27;4.40;;;;;;;;;;5020261;28;20048;-67
2022/09/04 06:42:59;;;;;;;18.40;3.63;;;;;;;;;;5019789;28;20366;-67
2022/09/04 06:45:25;;;;;;;16.65;3.53;;;;;;;;;;5011882;28;20056;-67
2022/09/04 06:48:11;;;;;;;13.63;3.33;;;;;;;;;;5015461;28;20026;-67
2022/09/04 06:50:57;;;;;;;18.77;3.92;;;;;;;;;;5010873;28;20045;-67
2022/09/04 06:53:41;;;;;;;16.77;4.10;;;;;;;;;;5008938;28;20023;-67
2022/09/04 06:56:08;;;;;;;9.65;3.50;;;;;;;;;;5014575;28;20049;-67
2022/09/04 06:58:47;;;;;;;16.42;3.90;;;;;;;;;;5019524;28;20500;-67
2022/09/04 07:01:16;;;;;;;16.35;4.30;;;;;;;;;;5018473;28;20057;-67
2022/09/04 07:03:48;;;;;;;13.30;3.13;;;;;;;;;;5020578;28;20081;-67
2022/09/04 07:06:50;;;;;;;20.58;3.45;;;;;;;;;;5012837;28;20030;-67
2022/09/04 07:09:21;;;;;;;12.98;3.13;;;;;;;;;;4998190;28;20465;-68
2022/09/04 07:11:47;;;;;;;15.15;3.42;;;;;;;;;;4998547;28;20057;-68
2022/09/04 07:14:26;;;;;;;12.35;3.47;;;;;;;;;;4998841;28;20476;-68
2022/09/04 07:17:11;;;;;;;13.95;3.53;;;;;;;;;;4993231;28;20088;-68
2022/09/04 07:19:48;;;;;;;18.45;3.10;;;;;;;;;;4992548;28;20026;-68
2022/09/04 07:22:20;;;;;;;18.55;3.35;;;;;;;;;;4987853;28;20081;-68
2022/09/04 07:24:46;;;;;;;10.93;2.90;;;;;;;;;;4979890;28;20035;-68
2022/09/04 07:27:20;;;;;;;12.02;2.65;;;;;;;;;;4984842;28;20038;-68
2022/09/04 07:29:57;;;;;;;13.68;3.30;;;;;;;;;;4980875;28;20046;-68
2022/09/04 07:32:46;;;;;;;11.70;3.25;;;;;;;;;;4983367;28;20046;-68
2022/09/04 07:35:17;;;;;;;14.30;2.95;;;;;;;;;;4976910;28;20046;-68
2022/09/04 07:37:57;;;;;;;11.80;3.50;;;;;;;;;;4985718;28;20049;-68
2022/09/04 07:40:30;;;;;;;16.50;3.28;;;;;;;;;;4980040;28;20830;-68
2022/09/04 07:42:59;;;;;;;15.98;3.55;;;;;;;;;;4986521;28;20055;-68
2022/09/04 07:45:34;;;;;;;13.30;3.72;;;;;;;;;;5009834;28;20456;-68
2022/09/04 07:48:10;;;;;;;12.48;3.50;;;;;;;;;;5008352;28;20092;-68
2022/09/04 07:50:40;;;;;;;16.80;2.67;;;;;;;;;;5014385;28;20083;-68
2022/09/04 07:53:13;;;;;;;16.85;3.00;;;;;;;;;;5009492;28;20054;-68
2022/09/04 07:55:40;;;;;;;;;;;;;;;;;;5011698;28;20030;-68
2022/09/04 07:58:27;;;;;;;14.48;3.08;;;;;;;;;;5013711;28;19909;-68
2022/09/04 08:01:08;;;;;;;16.25;3.35;;;;;;;;;;5008177;28;20374;-68
2022/09/04 08:03:53;;;;;;;18.98;3.58;;;;;;;;;;5015367;28;20037;-68
2022/09/04 08:06:29;;;;;;;12.63;2.63;;;;;;;;;;5000042;28;20510;-68
2022/09/04 08:08:55;;;;;;;11.38;3.05;;;;;;;;;;5006682;28;20037;-68
2022/09/04 08:11:28;;;;;;;12.50;3.60;;;;;;;;;;5009820;28;20039;-68
2022/09/04 08:13:54;;;;;;;9.05;3.10;;;;;;;;;;5003919;28;20105;-68
2022/09/04 08:16:38;;;;;;;7.78;2.60;;;;;;;;;;5006842;28;20017;-68
2022/09/04 08:19:16;;;;;;;13.50;3.22;;;;;;;;;;5009030;28;20037;-68
2022/09/04 08:21:43;;;;;;;11.45;2.80;;;;;;;;;;5012710;28;20068;-68
2022/09/04 08:24:21;;;;;;;11.77;3.65;;;;;;;;;;4998849;28;20549;-68
2022/09/04 08:26:55;;;;;;;17.55;3.50;;;;;;;;;;5008688;28;20060;-68
2022/09/04 08:29:33;;;;;;;10.35;3.65;;;;;;;;;;5015303;28;20564;-68
2022/09/04 08:32:02;;;;;;;6.75;2.90;;;;;;;;;;5009059;28;20032;-68
2022/09/04 08:34:53;;;;;;;9.88;2.65;;;;;;;;;;5010711;28;20026;-68
2022/09/04 08:37:24;;;;;;;6.50;2.60;;;;;;;;;;5005118;28;20045;-68
2022/09/04 08:40:02;;;;;;;14.27;2.70;;;;;;;;;;5015638;28;20436;-68
2022/09/04 08:42:44;;;;;;;12.40;2.90;;;;;;;;;;5009873;28;20036;-68
2022/09/04 08:45:29;;;;;;;11.88;3.03;;;;;;;;;;5007711;28;20034;-68
2022/09/04 08:48:04;;;;;;;8.40;2.72;;;;;;;;;;5002959;28;20152;-68
2022/09/04 08:50:36;;;;;;;13.07;2.63;;;;;;;;;;4999328;28;20720;-67
2022/09/04 08:53:08;;;;;;;9.93;2.83;;;;;;;;;;5007392;28;20460;-67
2022/09/04 08:55:37;;;;;;;13.57;2.85;;;;;;;;;;5011469;28;20053;-68
2022/09/04 08:58:15;;;;;;;10.35;2.95;;;;;;;;;;5014467;28;20056;-68
2022/09/04 09:01:02;;;;;;;9.90;2.88;;;;;;;;;;5001905;28;20022;-68
2022/09/04 09:03:41;;;;;;;8.82;2.80;;;;;;;;;;5004924;28;20148;-68
2022/09/04 09:06:23;;;;;;;9.30;2.58;;;;;;;;;;5002020;28;20030;-68
2022/09/04 09:08:49;;;;;;;12.25;3.55;;;;;;;;;;5007455;28;20068;-68
2022/09/04 09:11:24;;;;;;;8.57;2.42;;;;;;;;;;5006465;28;20080;-68
2022/09/04 09:13:50;;;;;;;18.75;3.25;;;;;;;;;;5006919;28;20026;-68
2022/09/04 09:16:19;;;;;;;10.10;2.47;;;;;;;;;;5004241;28;20783;-68
2022/09/04 09:18:49;;;;;;;11.90;2.67;;;;;;;;;;5013233;28;20053;-68
2022/09/04 09:21:30;;;;;;;8.13;2.40;;;;;;;;;;5001434;28;20031;-68
2022/09/04 09:24:15;;;;;;;9.32;2.40;;;;;;;;;;5004759;28;20463;-68
2022/09/04 09:26:44;;;;;;;12.98;3.00;;;;;;;;;;5005921;28;20110;-68
2022/09/04 09:29:29;;;;;;;13.25;2.70;;;;;;;;;;5002262;28;20049;-68
2022/09/04 09:32:00;;;;;;;10.38;2.53;;;;;;;;;;5005831;28;20030;-68
2022/09/04 09:34:26;;;;;;;8.30;3.08;;;;;;;;;;5000194;28;20022;-69
2022/09/04 09:37:20;;;;;;;9.57;2.22;;;;;;;;;;5004148;28;20101;-69
2022/09/04 09:39:46;;;;;;;12.90;3.08;;;;;;;;;;5000616;28;20026;-69
2022/09/04 09:42:25;;;;;;;5.75;1.88;;;;;;;;;;5007917;28;20014;-69
2022/09/04 09:44:54;;;;;;;8.68;3.03;;;;;;;;;;5011117;28;20506;-69
2022/09/04 09:47:23;;;;;;;6.80;2.42;;;;;;;;;;5008019;28;20066;-69
2022/09/04 09:50:01;;;;;;;11.90;2.22;;;;;;;;;;5008085;28;20022;-69
2022/09/04 09:52:49;;;;;;;10.13;2.90;;;;;;;;;;5008369;28;20044;-69
2022/09/04 09:55:18;;;;;;;7.38;2.17;;;;;;;;;;5004744;28;20022;-68
2022/09/04 09:57:44;;;;;;;9.60;2.47;;;;;;;;;;5005329;28;20024;-69
2022/09/04 10:00:12;;;;;;;15.10;2.50;;;;;;;;;;5003800;28;20147;-69
2022/09/04 10:02:58;;;;;;;7.97;2.42;;;;;;;;;;5009864;28;20045;-69
2022/09/04 10:05:43;;;;;;;12.35;2.45;;;;;;;;;;5000365;28;20073;-69
2022/09/04 10:08:11;;;;;;;9.88;2.40;;;;;;;;;;5006965;28;20141;-70
2022/09/04 10:10:50;;;;;;;7.53;2.58;;;;;;;;;;5006575;28;20042;-67
2022/09/04 10:13:32;;;;;;;6.57;2.22;;;;;;;;;;5004129;28;20549;-67
2022/09/04 10:16:17;;;;;;;7.60;2.53;;;;;;;;;;5004153;28;20072;-67
2022/09/04 10:19:02;;;;;;;14.85;2.30;;;;;;;;;;5004645;28;20032;-67
2022/09/04 10:21:28;;;;;;;11.65;3.10;;;;;;;;;;5004691;28;20532;-67
2022/09/04 10:24:13;;;;;;;7.63;2.30;;;;;;;;;;5006614;28;20071;-67
2022/09/04 10:26:57;;;;;;;12.23;2.85;;;;;;;;;;5006787;28;21344;-67
2022/09/04 10:29:35;;;;;;;7.25;2.63;;;;;;;;;;5005281;28;20088;-67
2022/09/04 10:32:06;;;;;;;11.07;2.50;;;;;;;;;;5005652;28;20046;-67
2022/09/04 10:34:33;;;;;;;7.85;2.00;;;;;;;;;;5007466;28;20469;-67
2022/09/04 10:37:07;;;;;;;6.47;2.28;;;;;;;;;;5002704;28;20440;-67
2022/09/04 10:42:44;;;;;;;10.23;2.22;;;;;;;;;;5005887;28;20038;-67
2022/09/04 10:45:10;;;;;;;6.25;2.20;;;;;;;;;;5006615;28;20077;-67
2022/09/04 10:47:39;;;;;;;4.80;2.15;;;;;;;;;;5011354;28;20108;-67
2022/09/04 10:50:27;;;;;;;5.50;2.40;;;;;;;;;;5005144;28;20386;-67
2022/09/04 10:53:05;;;;;;;6.97;2.20;;;;;;;;;;5008213;28;20057;-67
2022/09/04 10:55:51;;;;;;;5.90;2.20;;;;;;;;;;5007621;28;20026;-67
2022/09/04 10:58:29;;;;;;;8.48;2.13;;;;;;;;;;5006777;28;20026;-67
2022/09/04 11:00:57;;;;;;;6.05;2.15;;;;;;;;;;5006344;28;20092;-67
2022/09/04 11:03:42;;;;;;;7.93;2.35;;;;;;;;;;5004231;28;20075;-67
2022/09/04 11:06:11;;;;;;;9.57;2.35;;;;;;;;;;5004851;28;20032;-67
2022/09/04 11:08:49;;;;;;;9.55;2.85;;;;;;;;;;5003481;28;20054;-67
2022/09/04 11:11:18;;;;;;;6.88;2.25;;;;;;;;;;5001291;28;20026;-67
2022/09/04 11:14:04;;;;;;;12.95;2.30;;;;;;;;;;5001906;28;20033;-68
2022/09/04 11:16:36;;;;;;;9.82;2.65;;;;;;;;;;5006623;28;20129;-68
2022/09/04 11:19:19;;;;;;;12.23;3.70;;;;;;;;;;5005435;28;20545;-67
2022/09/04 11:21:45;;;;;;;;;;;;;;;;;;5008040;28;20033;-68
2022/09/04 11:24:32;;;;;;;8.18;2.70;;;;;;;;;;4997942;28;19905;-67
2022/09/04 11:27:19;;;;;;;8.82;2.20;;;;;;;;;;4999315;28;20030;-67
2022/09/04 11:30:04;;;;;;;8.15;2.40;;;;;;;;;;5002748;28;20117;-67
2022/09/04 11:32:39;;;;;;;8.40;2.53;;;;;;;;;;5000544;28;20041;-67
2022/09/04 11:35:24;;;;;;;10.65;2.22;;;;;;;;;;5000937;28;20026;-67
2022/09/04 11:38:17;;;;;;;12.63;2.55;;;;;;;;;;4996957;28;20124;-67
2022/09/04 11:40:43;;;;;;;;;;;;;;;;;;4999870;28;20026;-67
2022/09/04 11:43:09;;;;;;;6.95;1.95;;;;;;;;;;4995830;28;20321;-67
2022/09/04 11:45:36;;;;;;;5.65;1.85;;;;;;;;;;5003517;28;20062;-67
2022/09/04 11:48:08;;;;;;;8.60;2.08;;;;;;;;;;5000243;28;20019;-67
2022/09/04 11:50:34;;;;;;;7.35;2.35;;;;;;;;;;5000073;28;20030;-67
2022/09/04 11:53:00;;;;;;;9.85;2.08;;;;;;;;;;5004250;28;20474;-67
2022/09/04 11:55:29;;;;;;;7.95;2.17;;;;;;;;;;5003954;28;20075;-67
2022/09/04 11:57:56;;;;;;;8.82;2.55;;;;;;;;;;4999691;28;20093;-67
2022/09/04 12:00:22;;;;;;;8.38;2.20;;;;;;;;;;5002938;28;20122;-67
2022/09/04 12:02:54;;;;;;;6.28;2.28;;;;;;;;;;5005802;28;20070;-67
2022/09/04 12:05:46;;;;;;;9.93;2.03;;;;;;;;;;5006362;28;20572;-68
2022/09/04 12:08:12;;;;;;;6.80;2.20;;;;;;;;;;5004315;28;20437;-68
2022/09/04 12:10:58;;;;;;;8.38;2.20;;;;;;;;;;5005405;28;20031;-67
2022/09/04 12:13:42;;;;;;;7.05;2.10;;;;;;;;;;5005135;28;20721;-67
2022/09/04 12:16:14;;;;;;;6.38;1.92;;;;;;;;;;4997505;28;20120;-67
2022/09/04 12:18:43;;;;;;;9.18;2.00;;;;;;;;;;5009202;28;20742;-67
2022/09/04 12:21:21;;;;;;;9.68;2.92;;;;;;;;;;5008402;28;20030;-67
2022/09/04 12:24:01;;;;;;;12.65;2.28;;;;;;;;;;5009988;28;20069;-67
2022/09/04 12:26:36;;;;;;;7.47;2.15;;;;;;;;;;5007092;28;20050;-67
2022/09/04 12:29:11;;;;;;;12.10;2.50;;;;;;;;;;5004857;28;20521;-67
2022/09/04 12:31:45;;;;;;;7.07;1.98;;;;;;;;;;5004734;28;20057;-67
2022/09/04 12:34:15;;;;;;;5.32;2.30;;;;;;;;;;5000749;28;20048;-67
2022/09/04 12:36:41;;;;;;;7.03;1.95;;;;;;;;;;4998645;28;20034;-67
2022/09/04 12:39:07;;;;;;;7.68;2.45;;;;;;;;;;4996985;28;20031;-67
2022/09/04 12:41:36;;;;;;;5.55;2.20;;;;;;;;;;5002124;28;20054;-67
2022/09/04 12:44:16;;;;;;;12.60;2.60;;;;;;;;;;5008441;28;20437;-67
2022/09/04 12:47:01;;;;;;;8.02;1.88;;;;;;;;;;5003816;28;20076;-67
2022/09/04 12:49:39;;;;;;;6.78;2.03;;;;;;;;;;4998953;28;20034;-67
2022/09/04 12:52:24;;;;;;;6.55;2.28;;;;;;;;;;4999395;28;20030;-67
2022/09/04 12:54:50;;;;;;;9.00;2.60;;;;;;;;;;5001590;28;20030;-67
2022/09/04 12:57:35;;;;;;;10.13;2.72;;;;;;;;;;5003293;28;20502;-67
2022/09/04 13:00:14;;;;;;;5.53;1.88;;;;;;;;;;5003401;28;20026;-67
2022/09/04 13:02:40;;;;;;;6.28;2.00;;;;;;;;;;4999923;28;20053;-67
2022/09/04 13:05:06;;;;;;;7.05;2.25;;;;;;;;;;4998610;28;20068;-68
2022/09/04 13:07:39;;;;;;;11.00;2.20;;;;;;;;;;5004604;28;20041;-67
2022/09/04 13:10:05;;;;;;;7.60;2.53;;;;;;;;;;5001349;28;20029;-67
2022/09/04 13:12:35;;;;;;;7.20;1.92;;;;;;;;;;5001782;28;20054;-67
2022/09/04 13:15:06;;;;;;;6.55;2.28;;;;;;;;;;5001725;28;20030;-67
2022/09/04 13:17:44;;;;;;;13.18;2.33;;;;;;;;;;4999613;28;20030;-67
2022/09/04 13:20:26;;;;;;;10.45;2.17;;;;;;;;;;5002419;28;20117;-67
2022/09/04 13:23:01;;;;;;;7.45;2.03;;;;;;;;;;5005191;28;20229;-67
2022/09/04 13:25:54;;;;;;;7.75;2.15;;;;;;;;;;5007601;28;20502;-67
2022/09/04 13:28:34;;;;;;;11.07;2.07;;;;;;;;;;5037586;28;20042;-67
2022/09/04 13:31:19;;;;;;;6.05;2.25;;;;;;;;;;5002665;28;20033;-67
2022/09/04 13:33:48;;;;;;;4.78;1.85;;;;;;;;;;5012722;28;20022;-67
2022/09/04 13:36:34;;;;;;;5.93;2.08;;;;;;;;;;5010768;28;20022;-67
2022/09/04 13:39:19;;;;;;;10.32;2.38;;;;;;;;;;5006173;28;20120;-67
2022/09/04 13:41:46;;;;;;;5.07;2.15;;;;;;;;;;5016181;28;20501;-66
2022/09/04 13:44:21;;;;;;;10.10;2.42;;;;;;;;;;5009130;28;20113;-67
2022/09/04 13:47:07;;;;;;;6.70;2.00;;;;;;;;;;5005884;28;20026;-67
2022/09/04 13:49:46;;;;;;;10.18;2.58;;;;;;;;;;5004142;28;20555;-67
2022/09/04 13:52:16;;;;;;;7.88;2.20;;;;;;;;;;4997701;28;20029;-67
2022/09/04 13:54:46;;;;;;;6.47;2.90;;;;;;;;;;5000751;28;20501;-67
2022/09/04 13:57:26;;;;;;;6.72;2.15;;;;;;;;;;4998985;28;20026;-67
2022/09/04 13:59:55;;;;;;;8.00;2.05;;;;;;;;;;4999758;28;20298;-67
2022/09/04 14:02:24;;;;;;;8.70;2.05;;;;;;;;;;4998675;28;20021;-67
2022/09/04 14:04:52;;;;;;;7.88;2.30;;;;;;;;;;5002787;28;20482;-67
2022/09/04 14:07:24;;;;;;;13.73;2.05;;;;;;;;;;5001241;28;20030;-67
2022/09/04 14:09:52;;;;;;;10.40;2.60;;;;;;;;;;4997883;28;20031;-67
2022/09/04 14:12:26;;;;;;;6.22;2.45;;;;;;;;;;4998798;28;20038;-67
2022/09/04 14:14:54;;;;;;;11.45;2.35;;;;;;;;;;4999102;28;20478;-67
2022/09/04 14:17:25;;;;;;;9.73;2.17;;;;;;;;;;5000921;28;20440;-67
2022/09/04 14:20:02;;;;;;;11.02;2.42;;;;;;;;;;5000551;28;20077;-67
2022/09/04 14:22:34;;;;;;;6.07;2.78;;;;;;;;;;5013523;28;20029;-67
2022/09/04 14:25:16;;;;;;;8.90;2.22;;;;;;;;;;5010931;28;20029;-68
2022/09/04 14:27:55;;;;;;;7.82;2.17;;;;;;;;;;5008736;28;20030;-67
2022/09/04 14:30:22;;;;;;;8.68;2.60;;;;;;;;;;5005011;28;20033;-67
2022/09/04 14:32:49;;;;;;;7.22;2.00;;;;;;;;;;5009008;28;20041;-67
2022/09/04 14:35:18;;;;;;;5.93;2.28;;;;;;;;;;5012764;28;20034;-67
2022/09/04 14:37:52;;;;;;;10.73;2.10;;;;;;;;;;5009685;28;20034;-67
2022/09/04 14:40:26;;;;;;;10.10;2.55;;;;;;;;;;5013853;28;20451;-67
2022/09/04 14:42:56;;;;;;;7.30;2.67;;;;;;;;;;5013751;28;20081;-67
2022/09/04 14:45:41;;;;;;;8.80;2.42;;;;;;;;;;4994275;28;20042;-67
2022/09/04 14:48:10;;;;;;;8.05;2.55;;;;;;;;;;5000754;28;20042;-67
2022/09/04 14:50:45;;;;;;;6.15;2.33;;;;;;;;;;5000642;28;20148;-67
2022/09/04 14:53:18;;;;;;;6.63;2.03;;;;;;;;;;4997779;28;20031;-67
2022/09/04 14:56:04;;;;;;;7.30;2.20;;;;;;;;;;4995000;28;20075;-67
2022/09/04 14:58:34;;;;;;;6.75;2.00;;;;;;;;;;4994798;28;20029;-67
2022/09/04 15:01:03;;;;;;;7.25;2.10;;;;;;;;;;4999997;28;20125;-67
2022/09/04 15:03:49;;;;;;;9.45;2.30;;;;;;;;;;4994949;28;20026;-68
2022/09/04 15:06:19;;;;;;;8.18;2.55;;;;;;;;;;5000318;28;20413;-67
2022/09/04 15:08:45;;;;;;;9.60;2.20;;;;;;;;;;4996129;28;20502;-67
2022/09/04 15:11:27;;;;;;;10.02;2.42;;;;;;;;;;4994722;28;20026;-67
2022/09/04 15:13:54;;;;;;;11.60;2.42;;;;;;;;;;4994378;28;20066;-67
2022/09/04 15:16:27;;;;;;;11.68;2.38;;;;;;;;;;4997068;28;20010;-67
2022/09/04 15:19:03;;;;;;;7.93;2.55;;;;;;;;;;5004064;28;20029;-67
2022/09/04 15:21:36;;;;;;;5.00;2.70;;;;;;;;;;5004180;28;20037;-67
2022/09/04 15:24:05;;;;;;;7.20;2.72;;;;;;;;;;5015141;28;20030;-67
2022/09/04 15:26:50;;;;;;;7.05;2.33;;;;;;;;;;5013294;28;20038;-67
2022/09/04 15:29:31;;;;;;;9.18;2.03;;;;;;;;;;5016924;28;20030;-67